createdAt,value
2023-04-25T00:01:14.279Z,5.20
2023-04-25T00:03:43.347Z,4.80
2023-04-25T00:06:12.492Z,4.80
2023-04-25T00:08:41.816Z,5.30
2023-04-25T00:11:10.793Z,4.80
2023-04-25T00:13:42.885Z,5.60
2023-04-25T00:16:12.840Z,5.00
2023-04-25T00:18:43.325Z,5.40
2023-04-25T00:21:12.579Z,5.30
2023-04-25T00:23:41.716Z,5.00
2023-04-25T00:26:10.505Z,4.60
2023-04-25T00:28:40.717Z,4.70
2023-04-25T00:31:09.922Z,5.40
2023-04-25T00:33:39.006Z,5.10
2023-04-25T00:36:08.981Z,4.70
2023-04-25T00:38:39.390Z,6.00
2023-04-25T00:41:09.072Z,5.80
2023-04-25T00:43:39.107Z,5.30
2023-04-25T00:46:08.070Z,5.40
2023-04-25T00:48:36.870Z,4.80
2023-04-25T00:51:06.141Z,5.10
2023-04-25T00:53:35.007Z,4.60
2023-04-25T00:56:04.251Z,4.70
2023-04-25T00:58:33.558Z,5.10
2023-04-25T01:01:02.766Z,4.10
2023-04-25T01:03:36.927Z,4.80
2023-04-25T01:06:06.366Z,4.30
2023-04-25T01:08:35.645Z,4.20
2023-04-25T01:11:04.676Z,4.20
2023-04-25T01:13:34.551Z,4.20
2023-04-25T01:16:04.398Z,4.20
2023-04-25T01:18:35.324Z,4.90
2023-04-25T01:21:14.562Z,5.30
2023-04-25T01:23:44.096Z,5.00
2023-04-25T01:26:13.732Z,5.10
2023-04-25T01:28:43.177Z,5.80
2023-04-25T01:31:14.556Z,5.40
2023-04-25T01:33:43.505Z,5.70
2023-04-25T01:36:12.544Z,5.00
2023-04-25T01:38:41.521Z,5.80
2023-04-25T01:41:10.638Z,5.00
2023-04-25T01:43:39.498Z,5.10
2023-04-25T01:46:08.509Z,4.80
2023-04-25T01:48:37.391Z,6.10
2023-04-25T01:51:06.285Z,4.90
2023-04-25T01:53:35.509Z,5.80
2023-04-25T01:56:06.308Z,5.30
2023-04-25T01:58:37.361Z,4.40
2023-04-25T02:01:39.605Z,5.00
2023-04-25T02:04:17.599Z,4.20
2023-04-25T02:06:47.076Z,5.30
2023-04-25T02:09:17.824Z,4.30
2023-04-25T02:11:51.660Z,4.60
2023-04-25T02:14:30.053Z,4.70
2023-04-25T02:17:09.090Z,4.80
2023-04-25T02:19:38.343Z,4.70
2023-04-25T02:22:07.232Z,5.30
2023-04-25T02:24:36.091Z,5.50
2023-04-25T02:27:05.029Z,4.90
2023-04-25T02:29:33.882Z,6.70
2023-04-25T02:32:02.760Z,5.10
2023-04-25T02:34:31.685Z,5.60
2023-04-25T02:37:02.000Z,6.10
2023-04-25T02:39:30.831Z,5.10
2023-04-25T02:41:59.707Z,4.90
2023-04-25T02:44:30.421Z,4.60
2023-04-25T02:46:59.520Z,5.60
2023-04-25T02:49:28.560Z,4.70
2023-04-25T02:51:57.498Z,4.40
2023-04-25T02:54:26.673Z,5.70
2023-04-25T02:56:55.839Z,4.70
2023-04-25T02:59:27.718Z,4.60
2023-04-25T03:01:56.571Z,5.00
2023-04-25T03:04:25.985Z,4.40
2023-04-25T03:06:55.014Z,4.50
2023-04-25T03:09:23.883Z,5.00
2023-04-25T03:11:53.666Z,5.00
2023-04-25T03:14:22.674Z,4.40
2023-04-25T03:16:51.559Z,4.70
2023-04-25T03:19:21.709Z,4.40
2023-04-25T03:21:50.628Z,5.10
2023-04-25T03:24:20.154Z,4.60
2023-04-25T03:26:49.081Z,5.60
2023-04-25T03:29:18.187Z,4.80
2023-04-25T03:31:47.520Z,5.20
2023-04-25T03:34:16.596Z,4.20
2023-04-25T03:36:46.239Z,4.50
2023-04-25T03:39:15.614Z,4.50
2023-04-25T03:41:48.239Z,5.00
2023-04-25T03:44:17.384Z,4.90
2023-04-25T03:46:46.446Z,5.10
2023-04-25T03:49:18.585Z,4.40
2023-04-25T03:52:01.494Z,4.70
2023-04-25T03:54:33.715Z,3.90
2023-04-25T03:57:08.652Z,4.00
2023-04-25T04:02:12.055Z,3.70
2023-04-25T04:04:42.250Z,4.70
2023-04-25T04:07:11.916Z,3.80
2023-04-25T04:09:43.699Z,4.80
2023-04-25T04:12:18.185Z,4.30
2023-04-25T04:14:47.767Z,4.80
2023-04-25T04:17:17.261Z,5.30
2023-04-25T04:19:46.474Z,4.90
2023-04-25T04:22:20.545Z,6.00
2023-04-25T04:24:51.212Z,4.50
2023-04-25T04:27:47.326Z,4.90
2023-04-25T04:30:26.814Z,4.60
2023-04-25T04:33:00.433Z,5.30
2023-04-25T04:35:29.493Z,4.80
2023-04-25T04:38:01.273Z,5.10
2023-04-25T04:40:40.114Z,5.00
2023-04-25T04:43:20.576Z,14.20
2023-04-25T04:46:07.406Z,6.50
2023-04-25T04:48:36.183Z,6.20
2023-04-25T04:51:20.044Z,5.20
2023-04-25T04:54:07.268Z,5.10
2023-04-25T04:57:05.198Z,6.10
2023-04-25T05:00:06.127Z,4.60
2023-04-25T05:02:43.949Z,4.50
2023-04-25T05:06:07.906Z,4.50
2023-04-25T05:08:47.552Z,4.90
2023-04-25T05:11:27.279Z,4.90
2023-04-25T05:14:14.589Z,5.70
2023-04-25T05:16:59.727Z,5.90
2023-04-25T05:19:44.116Z,6.70
2023-04-25T05:22:31.466Z,5.50
2023-04-25T05:25:20.955Z,4.50
2023-04-25T05:27:58.106Z,5.00
2023-04-25T05:30:45.184Z,6.40
2023-04-25T05:33:19.748Z,6.20
2023-04-25T05:35:48.762Z,5.30
2023-04-25T05:38:19.489Z,4.60
2023-04-25T05:41:06.754Z,5.50
2023-04-25T05:43:48.439Z,5.70
2023-04-25T05:46:29.033Z,5.40
2023-04-25T05:49:26.027Z,4.10
2023-04-25T05:52:22.169Z,5.80
2023-04-25T05:55:06.014Z,5.40
2023-04-25T05:57:35.298Z,4.30
2023-04-25T06:00:10.307Z,3.80
2023-04-25T06:02:45.747Z,4.70
2023-04-25T06:05:16.224Z,3.80
2023-04-25T06:07:46.009Z,4.30
2023-04-25T06:10:15.254Z,4.30
2023-04-25T06:12:45.035Z,4.60
2023-04-25T06:15:27.985Z,4.90
2023-04-25T06:17:58.885Z,6.30
2023-04-25T06:20:28.005Z,5.00
2023-04-25T06:22:59.039Z,5.70
2023-04-25T06:25:39.653Z,4.80
2023-04-25T06:28:08.634Z,5.20
2023-04-25T06:30:37.423Z,5.20
2023-04-25T06:33:10.020Z,5.10
2023-04-25T06:35:39.040Z,5.70
2023-04-25T06:38:10.333Z,5.70
2023-04-25T06:40:39.214Z,5.80
2023-04-25T06:43:10.048Z,5.70
2023-04-25T06:45:53.210Z,4.80
2023-04-25T06:48:22.489Z,4.70
2023-04-25T06:50:51.918Z,5.30
2023-04-25T06:53:21.176Z,4.70
2023-04-25T06:55:53.748Z,5.60
2023-04-25T06:58:24.885Z,6.90
2023-04-25T07:01:22.053Z,5.70
2023-04-25T07:03:51.254Z,5.80
2023-04-25T07:06:20.268Z,5.00
2023-04-25T07:08:52.070Z,5.30
2023-04-25T07:13:50.037Z,6.40
2023-04-25T07:16:18.809Z,4.90
2023-04-25T07:18:48.733Z,4.30
2023-04-25T07:21:17.818Z,4.50
2023-04-25T07:24:12.359Z,5.70
2023-04-25T07:26:44.570Z,4.70
2023-04-25T07:29:41.799Z,5.30
2023-04-25T07:32:11.616Z,3.70
2023-04-25T07:34:40.681Z,4.40
2023-04-25T07:37:09.455Z,4.30
2023-04-25T07:39:48.068Z,4.80
2023-04-25T07:42:16.683Z,4.70
2023-04-25T07:44:46.157Z,6.00
2023-04-25T07:47:16.136Z,5.90
2023-04-25T07:49:44.907Z,6.10
2023-04-25T07:52:14.192Z,4.70
2023-04-25T07:54:46.363Z,6.60
2023-04-25T07:59:47.697Z,6.00
2023-04-25T08:02:16.863Z,6.60
2023-04-25T08:04:46.150Z,6.00
2023-04-25T08:07:19.126Z,5.60
2023-04-25T08:09:52.021Z,6.90
2023-04-25T08:12:26.216Z,5.70
2023-04-25T08:14:55.435Z,6.50
2023-04-25T08:17:24.920Z,6.60
2023-04-25T08:19:54.353Z,5.50
2023-04-25T08:22:31.827Z,5.30
2023-04-25T08:25:45.300Z,5.60
2023-04-25T08:28:16.377Z,5.90
2023-04-25T08:30:45.367Z,6.30
2023-04-25T08:33:15.806Z,5.60
2023-04-25T08:35:56.134Z,6.90
2023-04-25T08:38:24.817Z,5.30
2023-04-25T08:40:53.563Z,6.60
2023-04-25T08:43:25.415Z,6.20
2023-04-25T08:45:57.706Z,6.00
2023-04-25T08:48:37.889Z,5.50
2023-04-25T08:53:44.060Z,6.00
2023-04-25T08:56:18.713Z,6.50
2023-04-25T08:58:51.957Z,6.50
2023-04-25T09:01:21.404Z,7.20
2023-04-25T09:03:54.684Z,7.20
2023-04-25T09:06:24.825Z,6.30
2023-04-25T09:08:53.655Z,6.00
2023-04-25T09:11:23.581Z,13.50
2023-04-25T09:14:18.958Z,5.50
2023-04-25T09:17:10.143Z,6.10
2023-04-25T09:19:46.500Z,5.70
2023-04-25T09:22:24.039Z,6.40
2023-04-25T09:24:53.141Z,7.40
2023-04-25T09:27:28.268Z,6.90
2023-04-25T09:30:16.932Z,6.80
2023-04-25T09:33:33.374Z,5.80
2023-04-25T09:36:14.836Z,5.00
2023-04-25T09:38:54.073Z,6.00
2023-04-25T09:44:01.068Z,8.30
2023-04-25T09:46:39.078Z,8.80
2023-04-25T09:49:11.219Z,7.40
2023-04-25T09:52:26.940Z,8.50
2023-04-25T09:55:19.680Z,7.20
2023-04-25T09:57:53.878Z,7.80
2023-04-25T10:00:23.698Z,9.40
2023-04-25T10:02:54.241Z,8.50
2023-04-25T10:05:48.274Z,8.60
2023-04-25T10:08:18.081Z,5.50
2023-04-25T10:10:49.877Z,8.70
2023-04-25T10:13:19.057Z,8.60
2023-04-25T10:15:49.272Z,8.10
2023-04-25T10:18:20.098Z,8.70
2023-04-25T10:20:48.760Z,8.70
2023-04-25T10:23:18.306Z,8.00
2023-04-25T10:25:47.356Z,9.40
2023-04-25T10:28:15.942Z,8.90
2023-04-25T10:31:06.748Z,8.20
2023-04-25T10:33:44.208Z,9.10
2023-04-25T10:36:25.000Z,9.10
2023-04-25T10:38:54.300Z,9.70
2023-04-25T10:41:24.267Z,8.50
2023-04-25T10:44:02.643Z,8.10
2023-04-25T10:46:36.168Z,9.60
2023-04-25T10:49:05.596Z,9.80
2023-04-25T10:51:54.328Z,9.30
2023-04-25T10:54:26.841Z,9.10
2023-04-25T10:56:55.493Z,10.00
2023-04-25T10:59:26.398Z,7.90
2023-04-25T11:01:58.743Z,8.50
2023-04-25T11:04:35.807Z,8.40
2023-04-25T11:07:07.956Z,6.90
2023-04-25T11:09:41.397Z,8.00
2023-04-25T11:12:13.099Z,7.90
2023-04-25T11:14:42.230Z,6.60
2023-04-25T11:17:12.562Z,8.20
2023-04-25T11:19:41.387Z,7.60
2023-04-25T11:22:11.745Z,8.00
2023-04-25T11:24:40.744Z,7.80
2023-04-25T11:27:10.226Z,7.20
2023-04-25T11:29:38.848Z,5.80
2023-04-25T11:32:07.834Z,8.90
2023-04-25T11:34:36.563Z,7.10
2023-04-25T11:37:05.649Z,6.50
2023-04-25T11:39:34.477Z,5.60
2023-04-25T11:42:08.160Z,8.70
2023-04-25T11:44:42.034Z,6.00
2023-04-25T11:47:10.915Z,5.50
2023-04-25T11:49:40.124Z,5.80
2023-04-25T11:52:08.858Z,4.60
2023-04-25T11:54:38.988Z,5.80
2023-04-25T11:57:07.965Z,5.80
2023-04-25T11:59:36.966Z,6.40
2023-04-25T12:02:08.271Z,6.40
2023-04-25T12:04:37.135Z,6.10
2023-04-25T12:07:11.145Z,6.20
2023-04-25T12:09:41.154Z,6.70
2023-04-25T12:12:11.486Z,6.00
2023-04-25T12:14:40.268Z,6.90
2023-04-25T12:17:10.867Z,6.60
2023-04-25T12:19:45.583Z,6.70
2023-04-25T12:22:26.003Z,6.70
2023-04-25T12:24:55.372Z,6.20
2023-04-25T12:27:28.099Z,6.00
2023-04-25T12:29:58.200Z,5.70
2023-04-25T12:32:27.801Z,5.90
2023-04-25T12:34:57.019Z,5.40
2023-04-25T12:37:25.846Z,5.40
2023-04-25T12:39:54.611Z,6.60
2023-04-25T12:42:23.507Z,6.00
2023-04-25T12:44:52.245Z,5.20
2023-04-25T12:47:21.138Z,4.60
2023-04-25T12:49:49.949Z,6.20
2023-04-25T12:52:18.798Z,5.30
2023-04-25T12:54:47.422Z,6.00
2023-04-25T12:57:16.360Z,6.80
2023-04-25T12:59:45.127Z,5.90
2023-04-25T13:02:14.018Z,5.70
2023-04-25T13:04:42.772Z,6.80
2023-04-25T13:07:11.678Z,9.10
2023-04-25T13:09:40.427Z,5.00
2023-04-25T13:12:09.058Z,6.20
2023-04-25T13:14:37.824Z,5.50
2023-04-25T13:17:06.678Z,5.50
2023-04-25T13:19:35.645Z,4.40
2023-04-25T13:22:05.605Z,6.40
2023-04-25T13:24:34.520Z,6.30
2023-04-25T13:27:03.188Z,4.70
2023-04-25T13:29:31.889Z,5.10
2023-04-25T13:32:01.002Z,5.10
2023-04-25T13:34:32.059Z,4.10
2023-04-25T13:37:01.636Z,4.50
2023-04-25T13:39:30.511Z,4.70
2023-04-25T13:41:59.289Z,4.50
2023-04-25T13:44:28.028Z,4.40
2023-04-25T13:46:57.492Z,6.10
2023-04-25T13:49:26.460Z,4.70
2023-04-25T13:51:55.306Z,5.10
2023-04-25T13:54:24.306Z,5.30
2023-04-25T13:56:53.924Z,4.90
2023-04-25T13:59:22.874Z,4.80
2023-04-25T14:01:51.856Z,6.30
2023-04-25T14:04:20.791Z,5.10
2023-04-25T14:06:49.550Z,5.80
2023-04-25T14:09:19.141Z,4.20
2023-04-25T14:11:48.005Z,4.50
2023-04-25T14:14:17.365Z,4.10
2023-04-25T14:16:47.282Z,3.50
2023-04-25T14:19:16.684Z,5.90
2023-04-25T14:21:45.768Z,6.60
2023-04-25T14:24:15.309Z,5.60
2023-04-25T14:26:44.732Z,5.20
2023-04-25T14:29:13.480Z,3.60
2023-04-25T14:31:42.295Z,4.60
2023-04-25T14:34:11.688Z,5.50
2023-04-25T14:36:40.393Z,5.70
2023-04-25T14:39:09.942Z,6.00
2023-04-25T14:41:38.711Z,6.50
2023-04-25T14:44:07.448Z,6.10
2023-04-25T14:46:36.530Z,7.10
2023-04-25T14:49:06.522Z,6.30
2023-04-25T14:51:35.228Z,7.50
2023-04-25T14:54:04.182Z,6.50
2023-04-25T14:56:32.855Z,7.40
2023-04-25T14:59:01.613Z,6.70
2023-04-25T15:01:30.401Z,7.30
2023-04-25T15:03:59.771Z,5.60
2023-04-25T15:06:30.745Z,4.20
2023-04-25T15:09:01.619Z,7.10
2023-04-25T15:11:32.225Z,6.50
2023-04-25T15:14:00.946Z,8.40
2023-04-25T15:16:29.718Z,8.00
2023-04-25T15:18:59.245Z,7.80
2023-04-25T15:21:28.310Z,6.00
2023-04-25T15:23:57.163Z,7.00
2023-04-25T15:26:26.377Z,6.60
2023-04-25T15:28:55.678Z,8.90
2023-04-25T15:31:29.776Z,7.00
2023-04-25T15:33:58.483Z,6.30
2023-04-25T15:36:27.257Z,6.70
2023-04-25T15:38:59.940Z,6.90
2023-04-25T15:41:29.981Z,6.60
2023-04-25T15:44:01.962Z,6.50
2023-04-25T15:46:33.334Z,6.00
2023-04-25T15:49:02.998Z,5.80
2023-04-25T15:51:32.151Z,6.40
2023-04-25T15:54:02.762Z,7.70
2023-04-25T15:56:31.700Z,6.80
2023-04-25T15:59:00.521Z,7.40
2023-04-25T16:01:31.378Z,6.10
2023-04-25T16:04:00.700Z,6.30
2023-04-25T16:06:30.507Z,6.10
2023-04-25T16:08:59.145Z,14.90
2023-04-25T16:11:27.969Z,8.00
2023-04-25T16:13:56.678Z,14.10
2023-04-25T16:16:26.560Z,8.70
2023-04-25T16:18:55.492Z,6.10
2023-04-25T16:21:25.354Z,7.10
2023-04-25T16:23:54.948Z,11.00
2023-04-25T16:26:23.557Z,9.90
2023-04-25T16:28:52.845Z,8.80
2023-04-25T16:31:21.645Z,8.10
2023-04-25T16:33:50.517Z,6.60
2023-04-25T16:36:19.545Z,6.00
2023-04-25T16:38:48.199Z,6.20
2023-04-25T16:41:17.051Z,6.10
2023-04-25T16:43:45.678Z,7.10
2023-04-25T16:46:14.512Z,7.50
2023-04-25T16:48:43.381Z,7.00
2023-04-25T16:51:12.408Z,6.40
2023-04-25T16:53:41.710Z,6.60
2023-04-25T16:56:10.404Z,6.80
2023-04-25T16:58:39.282Z,7.00
2023-04-25T17:01:08.295Z,7.30
2023-04-25T17:03:37.405Z,7.90
2023-04-25T17:06:06.600Z,8.40
2023-04-25T17:08:35.664Z,10.00
2023-04-25T17:11:04.990Z,9.30
2023-04-25T17:13:33.782Z,9.20
2023-04-25T17:16:20.772Z,9.70
2023-04-25T17:18:52.821Z,11.90
2023-04-25T17:21:22.674Z,10.10
2023-04-25T17:23:53.134Z,11.10
2023-04-25T17:26:29.063Z,11.90
2023-04-25T17:28:58.030Z,9.80
2023-04-25T17:31:27.489Z,8.60
2023-04-25T17:33:58.345Z,10.00
2023-04-25T17:36:34.241Z,8.70
2023-04-25T17:39:07.091Z,6.90
2023-04-25T17:41:39.207Z,9.90
2023-04-25T17:44:08.114Z,9.90
2023-04-25T17:46:38.026Z,9.40
2023-04-25T17:49:34.118Z,8.70
2023-04-25T17:52:20.712Z,7.80
2023-04-25T17:54:55.199Z,8.30
2023-04-25T17:57:25.658Z,7.60
2023-04-25T17:59:56.726Z,8.20
2023-04-25T18:02:26.410Z,7.30
2023-04-25T18:05:00.999Z,8.00
2023-04-25T18:07:30.373Z,7.60
2023-04-25T18:10:02.690Z,7.90
2023-04-25T18:12:39.458Z,8.30
2023-04-25T18:15:09.969Z,6.80
2023-04-25T18:17:45.584Z,7.70
2023-04-25T18:20:17.625Z,9.80
2023-04-25T18:23:01.497Z,5.90
2023-04-25T18:25:31.048Z,4.60
2023-04-25T18:28:00.705Z,4.30
2023-04-25T18:30:31.547Z,4.60
2023-04-25T18:33:00.845Z,4.30
2023-04-25T18:35:30.568Z,4.80
2023-04-25T18:38:00.725Z,3.90
2023-04-25T18:40:54.194Z,4.50
2023-04-25T18:43:33.522Z,5.00
2023-04-25T18:46:03.573Z,5.50
2023-04-25T18:48:33.460Z,4.70
2023-04-25T18:51:05.927Z,4.70
2023-04-25T18:53:40.599Z,5.20
2023-04-25T18:56:20.788Z,4.30
2023-04-25T18:59:02.740Z,4.00
2023-04-25T19:01:33.906Z,4.10
2023-04-25T19:04:09.242Z,3.80
2023-04-25T19:06:51.856Z,3.80
2023-04-25T19:09:21.339Z,4.30
2023-04-25T19:11:51.693Z,5.00
2023-04-25T19:14:24.199Z,4.30
2023-04-25T19:17:10.444Z,5.20
2023-04-25T19:19:46.424Z,4.70
2023-04-25T19:22:15.767Z,4.10
2023-04-25T19:24:44.680Z,4.70
2023-04-25T19:27:14.361Z,4.80
2023-04-25T19:29:48.449Z,4.80
2023-04-25T19:32:24.799Z,5.10
2023-04-25T19:34:53.615Z,4.70
2023-04-25T19:37:22.250Z,5.00
2023-04-25T19:40:05.156Z,4.80
2023-04-25T19:42:36.891Z,4.60
2023-04-25T19:45:09.110Z,4.90
2023-04-25T19:47:47.450Z,4.90
2023-04-25T19:50:19.808Z,4.30
2023-04-25T19:52:58.047Z,6.00
2023-04-25T19:55:29.248Z,5.40
2023-04-25T19:57:57.871Z,5.00
2023-04-25T20:00:27.092Z,5.80
2023-04-25T20:02:55.859Z,5.10
2023-04-25T20:05:24.935Z,5.90
2023-04-25T20:07:54.059Z,5.30
2023-04-25T20:10:23.366Z,5.70
2023-04-25T20:13:10.612Z,6.10
2023-04-25T20:15:39.233Z,6.70
2023-04-25T20:18:08.164Z,7.90
2023-04-25T20:20:37.051Z,8.10
2023-04-25T20:23:06.074Z,8.10
2023-04-25T20:25:34.608Z,7.40
2023-04-25T20:28:03.231Z,7.60
2023-04-25T20:30:33.049Z,6.20
2023-04-25T20:33:02.252Z,6.00
2023-04-25T20:35:31.512Z,6.80
2023-04-25T20:38:00.794Z,7.00
2023-04-25T20:40:32.064Z,7.30
2023-04-25T20:43:02.492Z,7.20
2023-04-25T20:45:33.857Z,7.90
2023-04-25T20:48:02.775Z,7.20
2023-04-25T20:53:51.484Z,8.40
2023-04-25T20:56:20.944Z,8.10
2023-04-25T20:58:49.964Z,8.70
2023-04-25T21:01:19.913Z,9.10
2023-04-25T21:03:50.164Z,7.20
2023-04-25T21:06:19.865Z,8.50
2023-04-25T21:08:48.572Z,8.20
2023-04-25T21:11:17.347Z,8.70
2023-04-25T21:13:46.138Z,8.50
2023-04-25T21:16:14.794Z,8.60
2023-04-25T21:18:44.595Z,9.20
2023-04-25T21:21:13.441Z,9.20
2023-04-25T21:23:42.848Z,8.60
2023-04-25T21:26:11.467Z,8.20
2023-04-25T21:28:40.219Z,7.40
2023-04-25T21:31:09.253Z,7.00
2023-04-25T21:33:37.942Z,6.20
2023-04-25T21:36:06.840Z,6.70
2023-04-25T21:38:35.606Z,7.10
2023-04-25T21:41:05.465Z,7.20
2023-04-25T21:43:34.094Z,7.00
2023-04-25T21:48:34.376Z,6.50
2023-04-25T21:51:03.194Z,6.80
2023-04-25T21:53:31.844Z,7.00
2023-04-25T21:56:00.546Z,7.50
2023-04-25T21:58:29.146Z,7.20
2023-04-25T22:00:59.738Z,7.70
2023-04-25T22:03:28.572Z,7.60
2023-04-25T22:05:57.377Z,7.70
2023-04-25T22:08:26.150Z,7.10
2023-04-25T22:10:57.945Z,8.00
2023-04-25T22:13:28.636Z,7.10
2023-04-25T22:15:57.305Z,7.20
2023-04-25T22:18:26.016Z,7.20
2023-04-25T22:20:54.774Z,8.00
2023-04-25T22:23:23.465Z,7.30
2023-04-25T22:25:52.239Z,7.70
2023-04-25T22:28:21.690Z,8.10
2023-04-25T22:30:50.587Z,7.70
2023-04-25T22:33:19.212Z,8.60
2023-04-25T22:35:47.924Z,7.90
2023-04-25T22:38:16.905Z,7.50
2023-04-25T22:40:48.195Z,7.50
2023-04-25T22:43:16.929Z,9.20
2023-04-25T22:45:45.840Z,8.00
2023-04-25T22:48:14.724Z,9.30
2023-04-25T22:50:43.512Z,10.00
2023-04-25T22:53:12.823Z,9.10
2023-04-25T22:55:41.708Z,9.40
2023-04-25T22:58:10.515Z,9.30
2023-04-25T23:00:39.260Z,8.50
2023-04-25T23:03:07.965Z,8.60
2023-04-25T23:05:36.874Z,8.90
2023-04-25T23:08:06.237Z,8.50
2023-04-25T23:10:35.370Z,8.40
2023-04-25T23:13:04.181Z,8.10
2023-04-25T23:15:33.469Z,8.60
2023-04-25T23:18:03.154Z,8.60
2023-04-25T23:20:35.017Z,8.50
2023-04-25T23:23:03.628Z,9.30
2023-04-25T23:25:33.472Z,9.70
2023-04-25T23:28:02.253Z,9.40
2023-04-25T23:30:30.859Z,10.20
2023-04-25T23:32:59.597Z,11.30
2023-04-25T23:35:28.457Z,11.10
2023-04-25T23:37:57.101Z,11.10
2023-04-25T23:40:26.336Z,10.60
2023-04-25T23:42:55.153Z,9.40
2023-04-25T23:45:24.033Z,10.30
2023-04-25T23:47:52.818Z,9.50
2023-04-25T23:50:21.439Z,10.00
2023-04-25T23:52:50.228Z,11.00
2023-04-25T23:55:19.098Z,9.10
2023-04-25T23:57:48.681Z,9.50
